Time;durP1;ratioP1;P1;durP2;ratioP2;P2;SDS_P1;SDS_P2;PMS_P1;PMS_P2;Temp;Humidity;BMP_temperature;BMP_pressure;BME280_temperature;BME280_humidity;BME280_pressure;Samples;Min_cycle;Max_cycle;Signal;HPM_P1;HPM_P2
2021/04/22 00:01:40;;;;;;;24.50;20.77;;;13.40;99.90;;;;;;5045004;28;20629;-66
2021/04/22 00:04:06;;;;;;;25.40;20.63;;;13.20;99.90;;;;;;5048487;28;20240;-69
2021/04/22 00:06:32;;;;;;;29.43;20.93;;;13.10;99.90;;;;;;5046869;28;20262;-66
2021/04/22 00:08:57;;;;;;;28.30;20.97;;;13.00;99.90;;;;;;5025088;28;20259;-66
2021/04/22 00:11:23;;;;;;;28.30;21.03;;;12.90;99.90;;;;;;5048332;28;20194;-65
2021/04/22 00:13:49;;;;;;;26.37;21.43;;;12.80;99.90;;;;;;5047422;28;20194;-68
2021/04/22 00:16:15;;;;;;;24.87;21.57;;;12.80;99.90;;;;;;5045987;28;20198;-66
2021/04/22 00:18:40;;;;;;;23.57;20.70;;;12.80;99.90;;;;;;5047579;28;20203;-66
2021/04/22 00:21:06;;;;;;;27.00;20.43;;;12.70;99.90;;;;;;5046497;28;20179;-66
2021/04/22 00:23:32;;;;;;;24.20;20.73;;;12.70;98.50;;;;;;5047978;28;20171;-66
2021/04/22 00:25:57;;;;;;;27.17;21.63;;;12.60;99.90;;;;;;5046300;28;20175;-66
2021/04/22 00:28:23;;;;;;;31.20;19.60;;;12.60;99.60;;;;;;5048597;28;20258;-65
2021/04/22 00:30:49;;;;;;;28.30;20.00;;;12.60;99.90;;;;;;5047246;28;20179;-66
2021/04/22 00:33:19;;;;;;;21.97;19.33;;;12.50;97.90;;;;;;5045278;28;20258;-67
2021/04/22 00:35:46;;;;;;;28.07;20.57;;;12.50;99.90;;;;;;5046821;28;20167;-67
2021/04/22 00:38:12;;;;;;;22.77;18.47;;;12.40;99.90;;;;;;5047903;28;20293;-66
2021/04/22 00:40:39;;;;;;;23.50;19.13;;;12.40;99.90;;;;;;5046292;28;20182;-67
2021/04/22 00:43:08;;;;;;;22.90;19.07;;;12.30;99.90;;;;;;5045222;28;20186;-65
2021/04/22 00:45:37;;;;;;;26.50;19.00;;;12.30;99.40;;;;;;5047712;28;20235;-67
2021/04/22 00:48:03;;;;;;;28.87;19.20;;;12.30;99.90;;;;;;5047767;28;20521;-67
2021/04/22 00:50:32;;;;;;;23.63;18.80;;;12.30;99.90;;;;;;5050191;28;20171;-69
2021/04/22 00:52:59;;;;;;;24.77;19.73;;;12.20;99.90;;;;;;5047681;28;20227;-67
2021/04/22 00:55:26;;;;;;;27.07;19.93;;;12.20;99.90;;;;;;5044532;28;20512;-66
2021/04/22 00:57:53;;;;;;;24.40;18.13;;;12.20;99.90;;;;;;5042473;28;20211;-67
2021/04/22 01:00:22;;;;;;;23.90;20.03;;;12.10;99.90;;;;;;5048552;28;20175;-66
2021/04/22 01:02:48;;;;;;;26.03;18.43;;;12.10;99.90;;;;;;5048261;28;20159;-67
2021/04/22 01:05:24;;;;;;;22.30;18.80;;;12.10;99.00;;;;;;5047566;28;20589;-64
2021/04/22 01:07:50;;;;;;;20.93;16.83;;;12.10;99.50;;;;;;5048868;28;20166;-66
2021/04/22 01:10:18;;;;;;;23.47;18.87;;;12.00;97.90;;;;;;5046903;28;20225;-64
2021/04/22 01:12:45;;;;;;;21.40;18.27;;;11.90;98.30;;;;;;5045208;28;20264;-64
2021/04/22 01:15:19;;;;;;;21.53;17.23;;;11.80;99.90;;;;;;5048808;28;20222;-65
2021/04/22 01:17:45;;;;;;;22.53;18.30;;;11.70;99.90;;;;;;5025648;28;20198;-66
2021/04/22 01:20:15;;;;;;;20.23;17.17;;;11.80;99.90;;;;;;5046416;28;20537;-66
2021/04/22 01:22:41;;;;;;;25.27;18.40;;;11.80;99.90;;;;;;5051767;28;20221;-67
2021/04/22 01:25:10;;;;;;;21.73;17.67;;;11.70;99.70;;;;;;5046231;28;20233;-67
2021/04/22 01:27:38;;;;;;;22.07;18.27;;;11.70;99.90;;;;;;5045584;28;20682;-68
2021/04/22 01:30:13;;;;;;;24.37;17.57;;;11.70;99.90;;;;;;5027828;28;20708;-64
2021/04/22 01:32:39;;;;;;;20.20;17.07;;;11.70;99.90;;;;;;5047462;28;20213;-66
2021/04/22 01:35:11;;;;;;;26.93;17.37;;;11.70;99.90;;;;;;5049522;28;20210;-68
2021/04/22 01:37:37;;;;;;;20.97;16.73;;;11.70;99.70;;;;;;5044542;28;20313;-65
2021/04/22 01:40:04;;;;;;;20.47;16.40;;;11.70;99.90;;;;;;5045278;28;20257;-66
2021/04/22 01:42:30;;;;;;;22.07;16.80;;;11.70;99.90;;;;;;5048440;28;20529;-68
2021/04/22 01:44:56;;;;;;;21.00;16.10;;;11.60;99.90;;;;;;5049266;28;20183;-65
2021/04/22 01:47:21;;;;;;;20.80;15.67;;;11.50;99.90;;;;;;5021097;28;20548;-65
2021/04/22 01:49:47;;;;;;;20.43;16.50;;;11.50;99.90;;;;;;5050422;28;20198;-67
2021/04/22 01:52:13;;;;;;;22.40;16.13;;;11.50;99.90;;;;;;5045201;28;20183;-66
2021/04/22 01:54:38;;;;;;;20.73;15.20;;;11.40;99.90;;;;;;5048987;28;20207;-66
2021/04/22 01:57:04;;;;;;;20.60;13.77;;;11.40;99.90;;;;;;5047755;28;20487;-67
2021/04/22 01:59:30;;;;;;;17.67;14.50;;;11.40;99.90;;;;;;5042902;28;20664;-67
2021/04/22 02:01:56;;;;;;;22.30;13.73;;;11.30;99.90;;;;;;5049568;28;20206;-66
2021/04/22 02:04:21;;;;;;;18.43;13.30;;;11.30;99.90;;;;;;5044917;28;20304;-67
2021/04/22 02:06:47;;;;;;;17.93;13.07;;;11.20;99.90;;;;;;5027101;28;20186;-68
2021/04/22 02:09:13;;;;;;;19.83;13.03;;;11.20;99.90;;;;;;5043883;28;20175;-65
2021/04/22 02:11:38;;;;;;;18.00;13.77;;;11.10;99.90;;;;;;5047540;28;20617;-67
2021/04/22 02:14:04;;;;;;;19.43;13.17;;;11.10;99.90;;;;;;5045358;28;20184;-68
2021/04/22 02:16:30;;;;;;;19.07;12.63;;;11.10;99.90;;;;;;5046932;28;20191;-65
2021/04/22 02:18:55;;;;;;;21.87;12.67;;;11.10;99.90;;;;;;5046323;28;20203;-66
2021/04/22 02:21:21;;;;;;;15.63;12.27;;;11.10;99.90;;;;;;5046505;28;20175;-67
2021/04/22 02:23:47;;;;;;;17.40;12.20;;;11.10;99.90;;;;;;5047561;28;20599;-66
2021/04/22 02:26:12;;;;;;;19.63;12.17;;;11.10;99.90;;;;;;5046460;28;20254;-67
2021/04/22 02:28:38;;;;;;;22.10;13.07;;;11.10;99.90;;;;;;5047822;28;20548;-67
2021/04/22 02:31:03;;;;;;;19.00;13.13;;;11.10;99.90;;;;;;5044936;28;20210;-66
2021/04/22 02:33:29;;;;;;;19.37;12.83;;;11.10;99.90;;;;;;5043605;28;20381;-67
2021/04/22 02:35:55;;;;;;;18.27;12.00;;;11.00;99.90;;;;;;5046380;28;20693;-66
2021/04/22 02:38:20;;;;;;;19.63;12.53;;;11.00;99.90;;;;;;5048039;28;20276;-68
2021/04/22 02:40:47;;;;;;;18.10;11.97;;;11.00;99.90;;;;;;5048547;28;20175;-67
2021/04/22 02:43:16;;;;;;;16.90;12.47;;;11.00;99.90;;;;;;5048522;28;20229;-65
2021/04/22 02:45:48;;;;;;;16.10;11.90;;;11.00;99.90;;;;;;5044636;28;20258;-69
2021/04/22 02:48:14;;;;;;;17.47;11.57;;;11.00;99.90;;;;;;5049124;28;20232;-64
2021/04/22 02:50:49;;;;;;;17.97;11.43;;;11.00;99.90;;;;;;5021520;28;20657;-63
2021/04/22 02:53:15;;;;;;;16.97;11.93;;;11.00;99.90;;;;;;5026980;28;20202;-67
2021/04/22 02:55:42;;;;;;;21.13;12.23;;;10.90;99.90;;;;;;5047423;28;20703;-68
2021/04/22 02:58:10;;;;;;;18.03;10.70;;;10.80;99.90;;;;;;5046083;28;20199;-67
2021/04/22 03:00:36;;;;;;;20.77;10.60;;;10.80;99.90;;;;;;5048879;28;20409;-68
2021/04/22 03:03:01;;;;;;;14.50;10.40;;;10.80;99.90;;;;;;5048481;28;20178;-67
2021/04/22 03:05:27;;;;;;;17.23;11.03;;;10.80;99.90;;;;;;5046248;28;20179;-66
2021/04/22 03:07:53;;;;;;;13.53;9.50;;;10.80;99.90;;;;;;5027331;28;20178;-67
2021/04/22 03:10:21;;;;;;;19.17;10.93;;;10.70;99.90;;;;;;5052294;28;20412;-65
2021/04/22 03:12:47;;;;;;;20.97;11.67;;;10.70;99.90;;;;;;5052431;28;20175;-66
2021/04/22 03:15:13;;;;;;;17.07;10.53;;;10.70;99.90;;;;;;5048387;28;20409;-67
2021/04/22 03:17:40;;;;;;;16.40;10.47;;;10.70;99.90;;;;;;5048041;28;20234;-66
2021/04/22 03:20:06;;;;;;;17.70;10.40;;;10.70;99.90;;;;;;5027163;28;20414;-66
2021/04/22 03:22:33;;;;;;;21.47;9.63;;;10.70;99.90;;;;;;5048063;28;20536;-66
2021/04/22 03:24:59;;;;;;;17.27;9.33;;;10.60;99.80;;;;;;5044961;28;20245;-64
2021/04/22 03:27:27;;;;;;;15.90;9.53;;;10.60;99.90;;;;;;5046144;28;20469;-68
2021/04/22 03:29:53;;;;;;;18.43;9.07;;;10.50;99.90;;;;;;5050451;28;20430;-65
2021/04/22 03:32:19;;;;;;;19.30;10.03;;;10.50;99.90;;;;;;5050660;28;20418;-67
2021/04/22 03:34:44;;;;;;;15.53;8.33;;;10.40;99.90;;;;;;5047844;28;20429;-67
2021/04/22 03:37:10;;;;;;;17.67;8.33;;;10.40;99.90;;;;;;5048018;28;20580;-65
2021/04/22 03:39:35;;;;;;;16.27;9.30;;;10.40;99.90;;;;;;5048258;28;20545;-66
2021/04/22 03:42:01;;;;;;;12.00;8.23;;;10.30;99.90;;;;;;5028947;28;20171;-67
2021/04/22 03:44:27;;;;;;;14.40;8.73;;;10.30;99.90;;;;;;5047256;28;20180;-64
2021/04/22 03:46:52;;;;;;;14.80;9.00;;;10.30;99.90;;;;;;5026736;28;20175;-67
2021/04/22 03:49:18;;;;;;;18.80;9.80;;;10.30;99.90;;;;;;5046200;28;20178;-65
2021/04/22 03:51:43;;;;;;;17.67;9.43;;;10.20;99.90;;;;;;5045748;28;20232;-69
2021/04/22 03:54:09;;;;;;;16.97;9.57;;;10.10;99.90;;;;;;5046272;28;20227;-66
2021/04/22 03:56:35;;;;;;;15.70;10.93;;;10.10;99.90;;;;;;5046968;28;20262;-66
2021/04/22 03:59:00;;;;;;;18.00;9.67;;;10.20;99.90;;;;;;5044122;28;20206;-64
2021/04/22 04:01:26;;;;;;;16.03;9.47;;;10.20;99.90;;;;;;5046557;28;20210;-65
2021/04/22 04:03:51;;;;;;;14.10;9.10;;;10.20;99.90;;;;;;5048355;28;20690;-68
2021/04/22 04:06:17;;;;;;;19.37;9.23;;;10.20;99.90;;;;;;5046579;28;20179;-66
2021/04/22 04:08:43;;;;;;;15.13;9.30;;;10.10;99.90;;;;;;5048025;28;20232;-67
2021/04/22 04:11:08;;;;;;;15.33;9.70;;;10.10;99.90;;;;;;5048797;28;20246;-65
2021/04/22 04:13:34;;;;;;;18.07;10.00;;;10.00;99.90;;;;;;5046654;28;20194;-68
2021/04/22 04:15:59;;;;;;;14.30;9.00;;;10.00;99.90;;;;;;5046686;28;20179;-67
2021/04/22 04:18:25;;;;;;;15.87;8.70;;;9.90;99.90;;;;;;5044111;28;20284;-66
2021/04/22 04:20:50;;;;;;;16.73;9.23;;;9.80;99.90;;;;;;5048179;28;20529;-64
2021/04/22 04:23:16;;;;;;;15.53;8.23;;;9.80;99.90;;;;;;5048454;28;20198;-66
2021/04/22 04:25:42;;;;;;;17.43;8.57;;;;;;;;;;5045984;28;20255;-65
2021/04/22 04:28:09;;;;;;;16.87;8.40;;;9.70;99.90;;;;;;5044046;28;20183;-65
2021/04/22 04:30:35;;;;;;;15.50;7.77;;;9.60;99.90;;;;;;5047707;28;20429;-64
2021/04/22 04:33:00;;;;;;;13.97;8.13;;;9.60;99.90;;;;;;5049630;28;20413;-67
2021/04/22 04:35:26;;;;;;;21.23;8.57;;;9.50;99.90;;;;;;5049118;28;20190;-68
2021/04/22 04:37:52;;;;;;;19.27;7.77;;;9.50;99.90;;;;;;5048534;28;20218;-64
2021/04/22 04:40:18;;;;;;;20.73;7.57;;;9.50;99.90;;;;;;5049465;28;20416;-66
2021/04/22 04:42:44;;;;;;;14.47;8.00;;;9.40;99.90;;;;;;5044735;28;20175;-66
2021/04/22 04:45:13;;;;;;;13.37;7.30;;;9.40;99.90;;;;;;5050608;28;20975;-64
2021/04/22 04:47:39;;;;;;;17.40;8.17;;;9.30;99.90;;;;;;5044537;28;20184;-66
2021/04/22 04:50:06;;;;;;;18.87;8.83;;;9.30;99.90;;;;;;5044708;28;20421;-64
2021/04/22 04:52:32;;;;;;;17.17;7.73;;;9.20;99.90;;;;;;5047776;28;20659;-66
2021/04/22 04:54:58;;;;;;;18.97;8.10;;;9.20;99.90;;;;;;5045658;28;20497;-64
2021/04/22 04:57:23;;;;;;;16.13;8.27;;;9.20;99.90;;;;;;5048903;28;20199;-68
2021/04/22 04:59:49;;;;;;;19.37;8.20;;;9.20;99.90;;;;;;5042654;28;20186;-66
2021/04/22 05:02:15;;;;;;;16.70;7.83;;;9.20;99.90;;;;;;5047426;28;20167;-66
2021/04/22 05:04:40;;;;;;;16.87;7.53;;;9.20;99.90;;;;;;5043909;28;20203;-67
2021/04/22 05:07:06;;;;;;;12.97;7.87;;;9.20;99.90;;;;;;5048796;28;20607;-64
2021/04/22 05:09:31;;;;;;;15.30;6.93;;;9.20;99.90;;;;;;5025539;28;20230;-66
2021/04/22 05:11:57;;;;;;;15.23;7.20;;;9.20;99.90;;;;;;5045661;28;20209;-66
2021/04/22 05:14:23;;;;;;;16.23;6.63;;;9.20;99.90;;;;;;5045538;28;20271;-66
2021/04/22 05:16:48;;;;;;;15.47;6.50;;;9.20;99.90;;;;;;5043857;28;20236;-65
2021/04/22 05:19:14;;;;;;;22.33;8.27;;;9.20;99.90;;;;;;5049859;28;20202;-65
2021/04/22 05:21:39;;;;;;;18.17;7.63;;;9.20;99.90;;;;;;5046481;28;20182;-66
2021/04/22 05:24:06;;;;;;;15.60;6.57;;;9.10;99.90;;;;;;5044834;28;20258;-66
2021/04/22 05:26:31;;;;;;;16.33;6.53;;;9.10;99.90;;;;;;5043751;28;20253;-66
2021/04/22 05:28:57;;;;;;;12.53;5.47;;;9.00;99.90;;;;;;5048864;28;20920;-67
2021/04/22 05:31:23;;;;;;;14.73;5.40;;;8.90;99.90;;;;;;5051327;28;20626;-65
2021/04/22 05:33:49;;;;;;;11.80;5.10;;;8.90;99.90;;;;;;5042513;28;20207;-65
2021/04/22 05:36:15;;;;;;;15.00;4.87;;;9.00;99.90;;;;;;5050801;28;20467;-65
2021/04/22 05:38:41;;;;;;;12.17;5.30;;;9.10;98.50;;;;;;5051825;28;20829;-65
2021/04/22 05:41:06;;;;;;;11.13;4.30;;;9.00;98.90;;;;;;5046846;28;20253;-64
2021/04/22 05:43:32;;;;;;;9.40;4.03;;;9.10;99.30;;;;;;5050709;28;20179;-64
2021/04/22 05:45:59;;;;;;;7.43;4.17;;;9.20;97.90;;;;;;5049145;28;20170;-67
2021/04/22 05:48:24;;;;;;;11.87;3.57;;;9.20;95.30;;;;;;5049340;28;20179;-63
2021/04/22 05:50:50;;;;;;;10.13;4.30;;;9.20;97.50;;;;;;5050787;28;20822;-67
2021/04/22 05:53:16;;;;;;;12.23;3.20;;;9.20;96.10;;;;;;5050902;28;20185;-65
2021/04/22 05:55:42;;;;;;;12.10;3.80;;;9.20;97.50;;;;;;5050520;28;20178;-66
2021/04/22 05:58:08;;;;;;;13.27;4.13;;;9.30;96.10;;;;;;5049026;28;20449;-66
2021/04/22 06:00:34;;;;;;;12.80;3.77;;;9.20;95.50;;;;;;5050689;28;20413;-67
2021/04/22 06:02:59;;;;;;;14.07;3.67;;;9.20;96.60;;;;;;5050858;28;20194;-66
2021/04/22 06:05:26;;;;;;;10.97;3.47;;;9.20;97.60;;;;;;5051051;28;20262;-65
2021/04/22 06:07:52;;;;;;;8.53;3.40;;;9.30;94.40;;;;;;5049559;28;20190;-66
2021/04/22 06:10:18;;;;;;;10.07;3.50;;;9.10;93.40;;;;;;5049026;28;20597;-64
2021/04/22 06:12:44;;;;;;;8.80;3.00;;;9.10;94.80;;;;;;5050310;28;20179;-66
2021/04/22 06:15:11;;;;;;;8.90;3.13;;;9.00;95.60;;;;;;5050681;28;20426;-65
2021/04/22 06:17:37;;;;;;;7.43;3.23;;;9.10;96.80;;;;;;5050453;28;20408;-67
2021/04/22 06:20:29;;;;;;;14.13;3.63;;;9.10;95.70;;;;;;5050335;28;20413;-67
2021/04/22 06:22:55;;;;;;;7.27;3.37;;;9.00;95.40;;;;;;5041313;28;20811;-66
2021/04/22 06:25:27;;;;;;;9.77;3.70;;;8.90;96.00;;;;;;5047143;28;20425;-65
2021/04/22 06:27:53;;;;;;;13.60;3.37;;;8.80;96.40;;;;;;5047264;28;20258;-67
2021/04/22 06:30:19;;;;;;;10.17;3.40;;;8.80;97.30;;;;;;5048677;28;20493;-65
2021/04/22 06:32:45;;;;;;;10.93;4.03;;;8.90;96.30;;;;;;5049132;28;20179;-67
2021/04/22 06:35:12;;;;;;;10.70;3.27;;;8.90;95.50;;;;;;5049232;28;20406;-65
2021/04/22 06:37:38;;;;;;;13.20;3.30;;;8.90;95.40;;;;;;5047765;28;20245;-66
2021/04/22 06:40:12;;;;;;;10.93;3.20;;;8.90;94.90;;;;;;5049519;28;20445;-66
2021/04/22 06:42:39;;;;;;;10.60;3.10;;;8.90;95.30;;;;;;5054573;28;20181;-68
2021/04/22 06:45:06;;;;;;;7.03;3.20;;;9.00;94.70;;;;;;5051769;28;20413;-67
2021/04/22 06:47:32;;;;;;;6.50;2.77;;;9.00;94.30;;;;;;5054128;28;20420;-66
2021/04/22 06:49:58;;;;;;;9.13;3.13;;;9.00;94.70;;;;;;5054364;28;20895;-63
2021/04/22 06:52:24;;;;;;;11.27;3.60;;;8.90;93.70;;;;;;5051135;28;20663;-66
2021/04/22 06:54:49;;;;;;;9.03;3.23;;;8.90;93.00;;;;;;5053558;28;20183;-66
2021/04/22 06:57:18;;;;;;;10.97;3.40;;;8.80;93.10;;;;;;5054253;28;20198;-67
2021/04/22 06:59:44;;;;;;;10.57;3.03;;;8.80;93.90;;;;;;5053798;28;20258;-67
2021/04/22 07:02:10;;;;;;;8.80;3.07;;;8.90;93.60;;;;;;5052185;28;20490;-70
2021/04/22 07:04:38;;;;;;;8.10;2.63;;;8.90;93.80;;;;;;5050851;28;20244;-67
2021/04/22 07:07:06;;;;;;;8.70;2.90;;;9.00;93.70;;;;;;5049180;28;20945;-64
2021/04/22 07:09:34;;;;;;;9.20;2.90;;;9.00;92.80;;;;;;5053861;28;20414;-64
2021/04/22 07:12:00;;;;;;;12.67;3.00;;;9.00;91.50;;;;;;5052446;28;20902;-66
2021/04/22 07:14:25;;;;;;;10.50;3.20;;;9.10;91.60;;;;;;5053759;28;20453;-67
2021/04/22 07:16:51;;;;;;;10.83;3.87;;;9.20;91.90;;;;;;5051878;28;20171;-64
2021/04/22 07:19:17;;;;;;;11.93;3.40;;;9.20;90.50;;;;;;5046600;28;20206;-69
2021/04/22 07:21:42;;;;;;;9.13;2.83;;;9.20;86.50;;;;;;5051147;28;20538;-64
2021/04/22 07:24:08;;;;;;;11.40;3.63;;;9.10;86.80;;;;;;5051324;28;20250;-68
2021/04/22 07:26:34;;;;;;;13.30;3.83;;;9.00;90.10;;;;;;5049936;28;20179;-69
2021/04/22 07:29:01;;;;;;;10.53;3.80;;;8.90;90.40;;;;;;5052859;28;20255;-69
2021/04/22 07:31:26;;;;;;;10.47;3.13;;;9.10;90.40;;;;;;5053086;28;20191;-66
2021/04/22 07:33:53;;;;;;;12.83;3.03;;;9.20;88.80;;;;;;5050963;28;20462;-69
2021/04/22 07:36:21;;;;;;;15.97;3.73;;;9.40;86.40;;;;;;5052815;28;20185;-68
2021/04/22 07:38:46;;;;;;;10.13;3.33;;;9.50;86.50;;;;;;5050622;28;20548;-66
2021/04/22 07:41:13;;;;;;;13.37;3.00;;;9.70;82.80;;;;;;5050896;28;20568;-67
2021/04/22 07:43:38;;;;;;;10.93;3.30;;;9.70;86.40;;;;;;5050978;28;20324;-67
2021/04/22 07:46:04;;;;;;;14.93;3.30;;;9.70;81.60;;;;;;5051293;28;21001;-68
2021/04/22 07:48:30;;;;;;;8.30;3.27;;;9.60;80.20;;;;;;5048944;28;20180;-65
2021/04/22 07:50:56;;;;;;;9.40;3.07;;;9.70;82.10;;;;;;5050726;28;20187;-65
2021/04/22 07:53:22;;;;;;;10.77;3.30;;;9.70;81.40;;;;;;5030405;28;20187;-67
2021/04/22 07:55:48;;;;;;;14.67;2.97;;;9.70;84.30;;;;;;5050840;28;20584;-65
2021/04/22 07:58:15;;;;;;;14.50;3.30;;;9.90;84.10;;;;;;5048343;28;20504;-68
2021/04/22 08:00:43;;;;;;;17.53;3.50;;;9.90;80.10;;;;;;5051039;28;20418;-66
2021/04/22 08:03:12;;;;;;;9.20;2.63;;;10.10;82.00;;;;;;5049476;28;20418;-68
2021/04/22 08:05:38;;;;;;;17.63;4.00;;;10.20;79.20;;;;;;5044382;28;20445;-63
2021/04/22 08:08:08;;;;;;;16.37;4.03;;;10.30;82.30;;;;;;5052635;28;20456;-65
2021/04/22 08:10:38;;;;;;;12.53;3.47;;;10.30;78.00;;;;;;5052778;28;20186;-68
2021/04/22 08:13:05;;;;;;;11.63;3.30;;;10.30;78.80;;;;;;5052104;28;21038;-66
2021/04/22 08:15:35;;;;;;;10.00;3.10;;;10.40;80.20;;;;;;5046484;28;20428;-67
2021/04/22 08:18:02;;;;;;;10.73;3.33;;;10.50;80.80;;;;;;5045060;28;20480;-64
2021/04/22 08:20:28;;;;;;;13.50;4.10;;;10.60;78.00;;;;;;5051039;28;20845;-66
2021/04/22 08:22:55;;;;;;;14.40;3.97;;;10.60;74.20;;;;;;5050707;28;20425;-65
2021/04/22 08:25:27;;;;;;;12.40;3.80;;;10.60;75.70;;;;;;5049502;28;20861;-68
2021/04/22 08:27:55;;;;;;;19.27;3.50;;;10.60;77.70;;;;;;5047379;28;20446;-65
2021/04/22 08:30:27;;;;;;;15.00;3.27;;;10.70;75.60;;;;;;5032539;28;20780;-66
2021/04/22 08:32:52;;;;;;;14.40;3.37;;;10.70;73.80;;;;;;5047229;28;20202;-66
2021/04/22 08:35:18;;;;;;;15.60;3.90;;;10.80;72.60;;;;;;5051367;28;20426;-65
2021/04/22 08:37:44;;;;;;;9.97;3.37;;;10.90;74.00;;;;;;5051384;28;20219;-65
2021/04/22 08:40:12;;;;;;;14.40;4.00;;;11.00;71.50;;;;;;5045297;28;20635;-66
2021/04/22 08:42:40;;;;;;;11.30;3.73;;;11.10;71.30;;;;;;5049972;28;20162;-66
2021/04/22 08:45:07;;;;;;;11.63;3.63;;;11.20;70.00;;;;;;5048099;28;20454;-69
2021/04/22 08:47:33;;;;;;;10.03;3.63;;;11.30;68.60;;;;;;5050378;28;20421;-66
2021/04/22 08:49:59;;;;;;;17.07;3.73;;;11.40;69.40;;;;;;5051788;28;20262;-66
2021/04/22 08:52:25;;;;;;;9.73;3.33;;;11.40;67.70;;;;;;5049905;28;20175;-64
2021/04/22 08:54:52;;;;;;;13.80;3.73;;;11.40;69.20;;;;;;5050316;28;20163;-66
2021/04/22 08:57:18;;;;;;;10.37;3.30;;;11.40;65.00;;;;;;5049572;28;20193;-66
2021/04/22 08:59:44;;;;;;;10.63;4.00;;;11.50;67.00;;;;;;5049877;28;20186;-64
2021/04/22 09:02:11;;;;;;;12.37;3.90;;;11.50;67.60;;;;;;5051131;28;20524;-66
2021/04/22 09:04:37;;;;;;;15.07;3.77;;;11.60;66.90;;;;;;5050711;28;20264;-70
2021/04/22 09:07:04;;;;;;;12.07;3.33;;;11.70;66.00;;;;;;5033075;28;20175;-65
2021/04/22 09:09:30;;;;;;;9.50;3.90;;;11.80;66.00;;;;;;5050962;28;20179;-65
2021/04/22 09:11:55;;;;;;;14.97;3.97;;;11.80;64.10;;;;;;5047696;28;20255;-70
2021/04/22 09:14:23;;;;;;;11.83;3.67;;;11.70;63.20;;;;;;5050731;28;20641;-65
2021/04/22 09:16:50;;;;;;;13.40;3.50;;;11.70;65.20;;;;;;5044960;28;20275;-65
2021/04/22 09:19:19;;;;;;;19.47;4.00;;;11.60;64.90;;;;;;5046491;28;20282;-67
2021/04/22 09:21:53;;;;;;;16.00;3.70;;;11.70;62.30;;;;;;5050253;28;20237;-66
2021/04/22 09:24:20;;;;;;;13.17;4.13;;;11.90;61.30;;;;;;5045234;28;20199;-69
2021/04/22 09:26:53;;;;;;;15.60;3.83;;;12.00;61.30;;;;;;5050477;28;20191;-68
2021/04/22 09:29:34;;;;;;;15.33;3.83;;;12.00;61.10;;;;;;5047738;28;20262;-66
2021/04/22 09:32:09;;;;;;;12.13;3.37;;;12.20;58.70;;;;;;5049258;28;20653;-68
2021/04/22 09:34:35;;;;;;;14.97;3.50;;;12.30;59.40;;;;;;5045054;28;20182;-68
2021/04/22 09:37:01;;;;;;;15.53;3.80;;;12.40;57.40;;;;;;5050417;28;20171;-68
2021/04/22 09:39:29;;;;;;;10.43;3.47;;;12.40;58.10;;;;;;5051091;28;20206;-66
2021/04/22 09:41:57;;;;;;;19.43;4.00;;;12.50;57.90;;;;;;5016019;28;20258;-67
2021/04/22 09:44:23;;;;;;;10.10;4.03;;;12.50;56.50;;;;;;5050569;28;20182;-69
2021/04/22 09:47:10;;;;;;;13.60;3.97;;;12.50;56.90;;;;;;5050465;28;20171;-66
2021/04/22 09:50:14;;;;;;;9.57;3.47;;;12.50;56.10;;;;;;5050429;28;20205;-67
2021/04/22 09:52:43;;;;;;;8.17;3.37;;;12.70;56.20;;;;;;5046987;28;20194;-66
2021/04/22 09:55:13;;;;;;;13.37;3.70;;;12.70;54.00;;;;;;5021214;28;20187;-70
2021/04/22 09:57:40;;;;;;;12.13;3.60;;;12.70;55.70;;;;;;5049739;28;20707;-66
2021/04/22 10:00:17;;;;;;;10.07;3.30;;;12.70;53.50;;;;;;5026854;28;20218;-66
2021/04/22 10:02:55;;;;;;;14.83;4.33;;;12.60;55.70;;;;;;5050082;28;20224;-66
2021/04/22 10:05:32;;;;;;;11.40;3.47;;;12.70;55.10;;;;;;5048816;28;20231;-66
2021/04/22 10:08:10;;;;;;;11.53;3.80;;;12.80;54.30;;;;;;5049646;28;20170;-67
2021/04/22 10:10:37;;;;;;;10.97;3.90;;;13.00;53.80;;;;;;5050201;28;20174;-67
2021/04/22 10:13:08;;;;;;;13.57;3.30;;;13.00;52.40;;;;;;5048746;28;20181;-67
2021/04/22 10:15:34;;;;;;;8.67;3.13;;;13.10;51.70;;;;;;5050918;28;20178;-66
2021/04/22 10:18:07;;;;;;;14.40;3.50;;;13.20;51.10;;;;;;5054420;28;20561;-66
2021/04/22 10:20:35;;;;;;;12.40;3.00;;;13.20;49.80;;;;;;5054335;28;20171;-67
2021/04/22 10:23:01;;;;;;;11.67;3.70;;;13.00;49.20;;;;;;5054439;28;20629;-69
2021/04/22 10:25:31;;;;;;;10.90;3.50;;;12.90;50.40;;;;;;5054134;28;20170;-66
2021/04/22 10:28:12;;;;;;;12.10;3.87;;;12.90;50.70;;;;;;5054360;28;20759;-66
2021/04/22 10:30:41;;;;;;;7.83;3.07;;;13.00;52.10;;;;;;5052726;28;20185;-67
2021/04/22 10:33:07;;;;;;;10.87;3.30;;;13.30;49.90;;;;;;5054199;28;20201;-68
2021/04/22 10:35:36;;;;;;;10.47;3.73;;;13.40;48.20;;;;;;5054077;28;20705;-68
2021/04/22 10:38:04;;;;;;;10.20;2.80;;;13.50;47.20;;;;;;5055430;28;20568;-68
2021/04/22 10:40:34;;;;;;;11.50;3.20;;;13.60;47.30;;;;;;5052170;28;20629;-66
2021/04/22 10:43:01;;;;;;;12.20;3.23;;;13.60;45.90;;;;;;5054019;28;20175;-69
2021/04/22 10:45:28;;;;;;;11.27;3.13;;;13.70;46.90;;;;;;5053873;28;20184;-69
2021/04/22 10:47:54;;;;;;;7.77;3.40;;;13.80;45.50;;;;;;5053759;28;20175;-67
2021/04/22 10:50:28;;;;;;;15.90;3.23;;;14.00;46.40;;;;;;5054066;28;20471;-67
2021/04/22 10:52:54;;;;;;;8.90;3.43;;;14.10;46.60;;;;;;5053852;28;20175;-70
2021/04/22 10:55:30;;;;;;;13.07;3.43;;;14.30;45.50;;;;;;5052109;28;20183;-70
2021/04/22 10:57:58;;;;;;;13.33;3.20;;;14.50;44.10;;;;;;5053145;28;20684;-71
2021/04/22 11:00:30;;;;;;;9.43;3.27;;;14.60;44.80;;;;;;5053850;28;20569;-68
2021/04/22 11:02:58;;;;;;;9.47;3.13;;;14.70;44.70;;;;;;5050541;28;20187;-68
2021/04/22 11:05:30;;;;;;;7.40;3.00;;;14.70;42.20;;;;;;5053485;28;20187;-67
2021/04/22 11:08:01;;;;;;;9.50;3.03;;;14.70;43.30;;;;;;5053304;28;20186;-64
2021/04/22 11:10:39;;;;;;;8.27;2.97;;;14.70;43.30;;;;;;5052890;28;20549;-69
2021/04/22 11:13:20;;;;;;;7.37;3.20;;;14.70;41.20;;;;;;5051860;28;20228;-70
2021/04/22 11:15:52;;;;;;;9.87;3.77;;;14.70;43.10;;;;;;5051430;28;20210;-67
2021/04/22 11:18:18;;;;;;;9.43;3.10;;;14.90;43.80;;;;;;5051440;28;20199;-66
2021/04/22 11:20:44;;;;;;;10.83;3.40;;;15.10;43.10;;;;;;5052917;28;20179;-66
2021/04/22 11:23:14;;;;;;;14.17;3.70;;;15.00;41.60;;;;;;5051697;28;20237;-68
2021/04/22 11:25:56;;;;;;;14.27;3.60;;;15.00;40.90;;;;;;5053300;28;20721;-65
2021/04/22 11:28:33;;;;;;;7.23;3.47;;;15.00;41.90;;;;;;5052828;28;20564;-65
2021/04/22 11:31:09;;;;;;;13.07;4.00;;;15.10;40.80;;;;;;5052394;28;20175;-68
2021/04/22 11:33:35;;;;;;;7.17;3.67;;;15.20;42.40;;;;;;5052249;28;20179;-70
2021/04/22 11:36:18;;;;;;;9.53;3.50;;;15.40;42.20;;;;;;5052879;28;20565;-68
2021/04/22 11:38:56;;;;;;;16.77;4.20;;;15.30;41.00;;;;;;5048259;28;20303;-66
2021/04/22 11:41:25;;;;;;;11.17;3.73;;;15.30;40.20;;;;;;5051487;28;20735;-72
2021/04/22 11:44:06;;;;;;;9.17;3.13;;;15.40;40.10;;;;;;5051466;28;20172;-68
2021/04/22 11:46:39;;;;;;;8.77;3.20;;;15.40;40.10;;;;;;5051778;28;20175;-69
2021/04/22 11:49:05;;;;;;;8.80;2.80;;;15.50;41.00;;;;;;5050936;28;20258;-70
2021/04/22 11:51:37;;;;;;;8.37;3.23;;;15.60;40.20;;;;;;5050844;28;20181;-71
2021/04/22 11:54:03;;;;;;;6.83;3.00;;;15.70;38.90;;;;;;5051474;28;20280;-65
2021/04/22 11:56:28;;;;;;;8.57;2.97;;;15.80;38.20;;;;;;5051373;28;20182;-67
2021/04/22 11:58:54;;;;;;;7.70;2.57;;;15.70;36.80;;;;;;5051320;28;20661;-66
2021/04/22 12:01:20;;;;;;;7.30;3.00;;;15.70;36.80;;;;;;5051400;28;20190;-66
2021/04/22 12:03:46;;;;;;;8.30;2.90;;;15.80;37.30;;;;;;5051374;28;20667;-66
2021/04/22 12:06:16;;;;;;;6.97;2.50;;;15.80;35.00;;;;;;5051173;28;20702;-69
2021/04/22 12:08:43;;;;;;;5.43;2.47;;;15.80;37.80;;;;;;5047130;28;20179;-65
2021/04/22 12:11:14;;;;;;;11.23;2.83;;;15.90;35.80;;;;;;5051064;28;20190;-65
2021/04/22 12:13:40;;;;;;;9.60;2.80;;;16.00;36.30;;;;;;5050952;28;20269;-69
2021/04/22 12:16:07;;;;;;;7.33;2.77;;;16.00;35.20;;;;;;5049570;28;20786;-70
2021/04/22 12:18:38;;;;;;;8.53;2.70;;;15.80;33.80;;;;;;5050909;28;20217;-68
2021/04/22 12:21:07;;;;;;;5.93;2.80;;;15.80;36.00;;;;;;5050794;28;20175;-68
2021/04/22 12:23:34;;;;;;;8.90;3.07;;;15.80;37.20;;;;;;5050881;28;20175;-67
2021/04/22 12:26:13;;;;;;;8.63;3.33;;;15.90;36.40;;;;;;5049327;28;20171;-68
2021/04/22 12:29:00;;;;;;;7.03;2.93;;;16.10;35.70;;;;;;5050740;28;20183;-67
2021/04/22 12:31:29;;;;;;;10.67;3.77;;;16.20;35.00;;;;;;5051041;28;20259;-68
2021/04/22 12:34:00;;;;;;;11.17;3.07;;;16.30;35.70;;;;;;5050936;28;20520;-67
2021/04/22 12:36:25;;;;;;;10.10;3.77;;;16.50;36.60;;;;;;5050990;28;20241;-70
2021/04/22 12:39:04;;;;;;;9.57;3.30;;;16.30;34.40;;;;;;4786918;28;7588583;-68
2021/04/22 12:41:30;;;;;;;9.27;3.10;;;16.30;35.90;;;;;;5051347;28;20171;-66